createdAt,value
2023-01-29T00:02:18.209Z,102037.50
2023-01-29T00:06:23.299Z,102036.72
2023-01-29T00:10:27.454Z,102038.94
2023-01-29T00:14:31.826Z,102038.28
2023-01-29T00:18:34.841Z,102024.63
2023-01-29T00:22:37.878Z,102022.66
2023-01-29T00:26:42.471Z,102026.94
2023-01-29T00:30:46.989Z,102021.00
2023-01-29T00:34:50.040Z,102011.63
2023-01-29T00:38:58.872Z,102017.25
2023-01-29T00:43:19.351Z,102016.81
2023-01-29T00:47:33.405Z,102016.78
2023-01-29T00:51:37.679Z,102002.44
2023-01-29T00:55:40.696Z,102007.63
2023-01-29T00:59:43.791Z,102000.66
2023-01-29T01:03:48.184Z,102004.13
2023-01-29T01:07:53.848Z,102011.72
2023-01-29T01:11:55.944Z,102009.66
2023-01-29T01:15:59.077Z,102005.69
2023-01-29T01:20:03.638Z,102018.78
2023-01-29T01:24:07.072Z,102009.13
2023-01-29T01:28:13.389Z,102003.97
2023-01-29T01:32:16.973Z,101988.94
2023-01-29T01:36:21.343Z,101987.97
2023-01-29T01:40:26.402Z,101986.41
2023-01-29T01:44:58.895Z,101984.25
2023-01-29T01:49:06.998Z,101981.84
2023-01-29T01:53:13.781Z,101977.94
2023-01-29T01:57:25.328Z,101980.66
2023-01-29T02:01:29.173Z,101983.75
2023-01-29T02:05:51.543Z,101985.47
2023-01-29T02:10:01.646Z,101991.00
2023-01-29T02:14:05.125Z,101983.69
2023-01-29T02:18:08.331Z,101988.09
2023-01-29T02:22:40.025Z,101982.41
2023-01-29T02:26:55.847Z,102001.00
2023-01-29T02:31:09.514Z,102002.75
2023-01-29T02:35:28.725Z,102016.88
2023-01-29T02:39:37.122Z,102028.34
2023-01-29T02:43:47.344Z,102024.56
2023-01-29T02:47:59.686Z,102027.56
2023-01-29T02:52:08.382Z,102042.16
2023-01-29T02:56:14.347Z,102021.38
2023-01-29T03:00:22.170Z,102019.28
2023-01-29T03:04:34.217Z,102005.81
2023-01-29T03:08:45.546Z,102003.94
2023-01-29T03:12:56.270Z,102003.09
2023-01-29T03:17:00.430Z,101994.09
2023-01-29T03:21:29.894Z,102002.19
2023-01-29T03:25:53.633Z,102018.25
2023-01-29T03:30:16.730Z,102010.41
2023-01-29T03:34:35.011Z,102002.09
2023-01-29T03:38:40.145Z,102012.66
2023-01-29T03:42:56.175Z,102002.06
2023-01-29T03:47:04.484Z,102005.16
2023-01-29T03:51:23.295Z,102008.78
2023-01-29T03:55:36.334Z,101999.88
2023-01-29T03:59:47.284Z,102006.22
2023-01-29T04:04:16.201Z,102005.66
2023-01-29T04:08:26.113Z,102000.94
2023-01-29T04:12:36.669Z,101986.38
2023-01-29T04:16:45.535Z,101992.75
2023-01-29T04:21:15.347Z,101973.91
2023-01-29T04:25:26.665Z,101971.91
2023-01-29T04:29:44.503Z,101973.72
2023-01-29T04:34:00.204Z,101962.91
2023-01-29T04:38:12.636Z,101949.16
2023-01-29T04:42:25.323Z,101949.53
2023-01-29T04:46:36.209Z,101942.16
2023-01-29T04:50:42.717Z,101945.78
2023-01-29T04:54:55.141Z,101952.41
2023-01-29T04:59:03.157Z,101941.53
2023-01-29T05:03:09.727Z,101936.75
2023-01-29T05:07:15.792Z,101931.38
2023-01-29T05:11:19.888Z,101936.91
2023-01-29T05:15:27.975Z,101929.06
2023-01-29T05:19:32.715Z,101928.28
2023-01-29T05:23:36.225Z,101913.91
2023-01-29T05:27:56.584Z,101912.19
2023-01-29T05:31:59.773Z,101914.88
2023-01-29T05:36:04.571Z,101914.50
2023-01-29T05:40:10.281Z,101910.28
2023-01-29T05:44:13.858Z,101905.31
2023-01-29T05:48:16.864Z,101903.59
2023-01-29T05:52:21.217Z,101900.13
2023-01-29T05:56:25.395Z,101898.78
2023-01-29T06:00:28.432Z,101896.03
2023-01-29T06:04:31.440Z,101892.28
2023-01-29T06:08:35.857Z,101916.41
2023-01-29T06:12:38.849Z,101924.44
2023-01-29T06:16:42.918Z,101927.50
2023-01-29T06:20:45.943Z,101931.63
2023-01-29T06:24:50.294Z,101939.84
2023-01-29T06:28:53.311Z,101958.31
2023-01-29T06:32:58.796Z,101964.22
2023-01-29T06:37:01.969Z,101968.44
2023-01-29T06:41:11.863Z,101947.63
2023-01-29T06:45:15.018Z,101964.50
2023-01-29T06:49:18.019Z,101961.72
2023-01-29T06:53:21.006Z,101957.88
2023-01-29T06:57:25.337Z,101939.88
2023-01-29T07:01:36.120Z,101928.94
2023-01-29T07:05:39.633Z,101908.03
2023-01-29T07:09:43.507Z,101912.31
2023-01-29T07:13:47.972Z,101914.91
2023-01-29T07:17:58.270Z,101937.91
2023-01-29T07:22:02.465Z,101928.44
2023-01-29T07:26:07.073Z,101919.44
2023-01-29T07:30:13.128Z,101912.13
2023-01-29T07:34:16.169Z,101920.75
2023-01-29T07:38:19.491Z,101928.50
2023-01-29T07:42:22.502Z,101934.50
2023-01-29T07:46:26.900Z,101914.34
2023-01-29T07:50:30.007Z,101907.06
2023-01-29T07:54:33.059Z,101915.88
2023-01-29T07:58:36.862Z,101905.38
2023-01-29T08:02:41.383Z,101908.91
2023-01-29T08:06:44.425Z,101907.53
2023-01-29T08:10:47.505Z,101901.28
2023-01-29T08:14:50.566Z,101907.19
2023-01-29T08:18:54.993Z,101916.47
2023-01-29T08:23:02.207Z,101915.28
2023-01-29T08:27:05.293Z,101921.75
2023-01-29T08:31:14.867Z,101931.59
2023-01-29T08:35:19.556Z,101915.28
2023-01-29T08:39:22.726Z,101920.00
2023-01-29T08:43:25.779Z,101916.34
2023-01-29T08:47:29.582Z,101910.66
2023-01-29T08:51:34.095Z,101901.41
2023-01-29T08:55:38.965Z,101900.22
2023-01-29T08:59:41.989Z,101887.44
2023-01-29T09:03:45.011Z,101879.78
2023-01-29T09:07:49.413Z,101890.31
2023-01-29T09:11:52.505Z,101876.66
2023-01-29T09:15:56.860Z,101877.41
2023-01-29T09:20:00.506Z,101875.38
2023-01-29T09:24:05.431Z,101876.91
2023-01-29T09:28:08.458Z,101853.06
2023-01-29T09:32:11.520Z,101862.69
2023-01-29T09:36:14.693Z,101858.22
2023-01-29T09:40:27.024Z,101863.16
2023-01-29T09:44:47.604Z,101858.59
2023-01-29T09:48:59.757Z,101843.13
2023-01-29T09:53:12.131Z,101840.72
2023-01-29T09:57:23.951Z,101849.09
2023-01-29T10:01:34.696Z,101839.75
2023-01-29T10:05:55.197Z,101835.50
2023-01-29T10:10:22.918Z,101837.53
2023-01-29T10:14:39.960Z,101826.25
2023-01-29T10:18:57.388Z,101825.81
2023-01-29T10:23:09.477Z,101827.03
2023-01-29T10:27:17.895Z,101829.31
2023-01-29T10:31:28.681Z,101825.47
2023-01-29T10:35:36.370Z,101839.31
2023-01-29T10:39:39.423Z,101821.00
2023-01-29T10:43:52.798Z,101813.94
2023-01-29T10:48:29.829Z,101821.34
2023-01-29T10:52:46.477Z,101811.13
2023-01-29T10:57:03.151Z,101796.53
2023-01-29T11:01:08.667Z,101779.00
2023-01-29T11:05:22.625Z,101773.50
2023-01-29T11:13:43.996Z,101771.75
2023-01-29T11:18:04.035Z,101773.22
2023-01-29T11:22:15.195Z,101765.88
2023-01-29T11:26:22.378Z,101759.50
2023-01-29T11:30:28.237Z,101751.38
2023-01-29T11:34:32.105Z,101748.69
2023-01-29T11:38:36.500Z,101742.34
2023-01-29T11:42:39.505Z,101735.19
2023-01-29T11:46:42.659Z,101733.59
2023-01-29T11:50:53.060Z,101719.53
2023-01-29T11:55:01.017Z,101697.81
2023-01-29T11:59:05.701Z,101708.19
2023-01-29T12:03:17.071Z,101685.16
2023-01-29T12:07:20.694Z,101682.19
2023-01-29T12:11:30.856Z,101656.56
2023-01-29T12:15:34.320Z,101648.41
2023-01-29T12:19:43.848Z,101643.06
2023-01-29T12:23:53.354Z,101634.00
2023-01-29T12:28:05.830Z,101623.47
2023-01-29T12:32:20.157Z,101602.75
2023-01-29T12:36:29.317Z,101597.47
2023-01-29T12:40:39.426Z,101592.97
2023-01-29T12:44:47.676Z,101583.13
2023-01-29T12:48:51.882Z,101578.75
2023-01-29T12:52:58.490Z,101571.28
2023-01-29T12:57:05.629Z,101569.22
2023-01-29T13:01:17.925Z,101547.81
2023-01-29T13:05:26.962Z,101541.16
2023-01-29T13:09:33.833Z,101522.50
2023-01-29T13:13:43.865Z,101512.19
2023-01-29T13:17:52.597Z,101510.03
2023-01-29T13:21:58.614Z,101509.56
2023-01-29T13:26:02.131Z,101510.50
2023-01-29T13:30:06.498Z,101512.38
2023-01-29T13:34:16.394Z,101529.38
2023-01-29T13:38:26.649Z,101524.25
2023-01-29T13:42:41.554Z,101516.31
2023-01-29T13:46:50.995Z,101516.78
2023-01-29T13:50:57.551Z,101520.84
2023-01-29T13:55:03.888Z,101528.84
2023-01-29T13:59:07.581Z,101541.91
2023-01-29T14:04:02.195Z,101531.94
2023-01-29T14:08:47.394Z,101538.31
2023-01-29T14:12:53.880Z,101536.50
2023-01-29T14:17:02.948Z,101525.44
2023-01-29T14:21:08.604Z,101512.31
2023-01-29T14:25:19.893Z,101513.03
2023-01-29T14:29:34.713Z,101500.94
2023-01-29T14:33:42.484Z,101498.97
2023-01-29T14:37:49.809Z,101498.97
2023-01-29T14:41:53.699Z,101493.13
2023-01-29T14:46:36.549Z,101490.41
2023-01-29T14:50:48.228Z,101498.97
2023-01-29T14:54:53.960Z,101506.34
2023-01-29T14:59:04.454Z,101499.22
2023-01-29T15:03:17.545Z,101498.25
2023-01-29T15:07:28.635Z,101497.53
2023-01-29T15:11:38.337Z,101504.63
2023-01-29T15:15:47.351Z,101493.84
2023-01-29T15:19:52.128Z,101494.66
2023-01-29T15:24:05.730Z,101493.56
2023-01-29T15:28:12.359Z,101488.44
2023-01-29T15:32:28.306Z,101488.09
2023-01-29T15:36:33.334Z,101478.63
2023-01-29T15:40:36.418Z,101471.91
2023-01-29T15:44:47.214Z,101467.09
2023-01-29T15:48:51.785Z,101473.31
2023-01-29T15:52:59.479Z,101476.47
2023-01-29T15:57:03.923Z,101458.56
2023-01-29T16:01:07.623Z,101451.72
2023-01-29T16:05:17.405Z,101441.06
2023-01-29T16:09:25.682Z,101444.78
2023-01-29T16:13:30.883Z,101424.00
2023-01-29T16:17:38.052Z,101435.78
2023-01-29T16:21:45.990Z,101440.94
2023-01-29T16:25:51.032Z,101440.47
2023-01-29T16:29:54.239Z,101444.88
2023-01-29T16:33:59.818Z,101435.78
2023-01-29T16:38:07.867Z,101427.84
2023-01-29T16:42:27.665Z,101418.75
2023-01-29T16:46:36.393Z,101413.22
2023-01-29T16:50:53.831Z,101420.03
2023-01-29T16:55:21.530Z,101413.38
2023-01-29T16:59:33.451Z,101398.16
2023-01-29T17:03:38.677Z,101406.28
2023-01-29T17:07:46.319Z,101403.84
2023-01-29T17:11:50.376Z,101394.31
2023-01-29T17:15:55.127Z,101404.41
2023-01-29T17:19:59.577Z,101398.28
2023-01-29T17:24:02.865Z,101386.06
2023-01-29T17:28:06.920Z,101383.22
2023-01-29T17:32:12.365Z,101387.75
2023-01-29T17:36:18.529Z,101389.47
2023-01-29T17:40:33.911Z,101380.09
2023-01-29T17:44:36.988Z,101373.59
2023-01-29T17:48:41.499Z,101373.59
2023-01-29T17:52:44.625Z,101373.88
2023-01-29T17:56:48.146Z,101368.19
2023-01-29T18:00:52.043Z,101354.25
2023-01-29T18:04:56.343Z,101339.22
2023-01-29T18:08:59.618Z,101352.44
2023-01-29T18:13:03.169Z,101342.63
2023-01-29T18:17:06.160Z,101335.81
2023-01-29T18:21:10.655Z,101339.94
2023-01-29T18:25:14.366Z,101334.66
2023-01-29T18:29:17.540Z,101327.28
2023-01-29T18:33:20.598Z,101320.75
2023-01-29T18:37:25.149Z,101323.00
2023-01-29T18:41:28.246Z,101324.72
2023-01-29T18:45:31.871Z,101308.66
2023-01-29T18:49:38.839Z,101293.59
2023-01-29T18:53:43.256Z,101299.28
2023-01-29T18:58:26.638Z,101296.28
2023-01-29T19:02:13.912Z,101290.47
2023-01-29T19:06:17.036Z,101276.78
2023-01-29T19:10:21.495Z,101267.84
2023-01-29T19:14:24.532Z,101279.78
2023-01-29T19:18:28.221Z,101280.34
2023-01-29T19:22:31.879Z,101272.34
2023-01-29T19:26:36.407Z,101269.41
2023-01-29T19:30:40.059Z,101260.47
2023-01-29T19:34:43.138Z,101265.88
2023-01-29T19:38:46.186Z,101270.13
2023-01-29T19:42:54.553Z,101262.31
2023-01-29T19:46:57.608Z,101259.63
2023-01-29T19:51:04.495Z,101255.06
2023-01-29T19:55:09.610Z,101242.69
2023-01-29T19:59:14.265Z,101233.72
2023-01-29T20:03:17.291Z,101229.44
2023-01-29T20:07:20.792Z,101216.53
2023-01-29T20:11:25.306Z,101213.81
2023-01-29T20:15:29.672Z,101201.31
2023-01-29T20:19:32.804Z,101176.00
2023-01-29T20:23:37.979Z,101178.78
2023-01-29T20:27:41.627Z,101160.28
2023-01-29T20:31:46.046Z,101154.88
2023-01-29T20:35:55.078Z,101143.19
2023-01-29T20:39:58.191Z,101145.06
2023-01-29T20:44:01.256Z,101153.72
2023-01-29T20:48:05.763Z,101152.28
2023-01-29T20:52:10.358Z,101142.47
2023-01-29T20:56:14.207Z,101155.00
2023-01-29T21:00:18.547Z,101132.91
2023-01-29T21:04:23.200Z,101151.53
2023-01-29T21:08:26.267Z,101140.56
2023-01-29T21:12:29.463Z,101147.69
2023-01-29T21:16:32.560Z,101156.63
2023-01-29T21:20:36.965Z,101139.72
2023-01-29T21:24:39.974Z,101132.31
2023-01-29T21:28:43.016Z,101124.34
2023-01-29T21:32:46.020Z,101132.06
2023-01-29T21:36:50.611Z,101149.13
2023-01-29T21:40:53.802Z,101170.19
2023-01-29T21:44:56.890Z,101175.44
2023-01-29T21:48:59.965Z,101191.66
2023-01-29T21:53:04.540Z,101176.75
2023-01-29T21:57:09.587Z,101193.38
2023-01-29T22:01:36.245Z,101185.25
2023-01-29T22:05:36.298Z,101170.44
2023-01-29T22:09:41.221Z,101167.59
2023-01-29T22:13:44.446Z,101159.28
2023-01-29T22:17:47.453Z,101152.72
2023-01-29T22:21:50.467Z,101171.38
2023-01-29T22:25:54.830Z,101158.38
2023-01-29T22:29:57.810Z,101159.78
2023-01-29T22:34:00.805Z,101159.19
2023-01-29T22:38:03.977Z,101150.31
2023-01-29T22:42:08.332Z,101148.31
2023-01-29T22:46:12.086Z,101149.72
2023-01-29T22:50:15.346Z,101125.78
2023-01-29T22:54:18.643Z,101102.72
2023-01-29T22:58:23.284Z,101076.38
2023-01-29T23:02:26.445Z,101055.44
2023-01-29T23:06:29.398Z,101038.91
2023-01-29T23:10:32.420Z,101029.44
2023-01-29T23:14:36.797Z,101016.59
2023-01-29T23:18:39.824Z,101039.63
2023-01-29T23:22:42.811Z,101041.31
2023-01-29T23:27:03.481Z,101059.25
2023-01-29T23:31:08.041Z,101058.94
2023-01-29T23:35:11.375Z,101037.47
2023-01-29T23:39:14.399Z,101047.69
2023-01-29T23:43:17.391Z,101033.28
2023-01-29T23:47:21.723Z,101040.78
2023-01-29T23:51:25.015Z,101024.22
2023-01-29T23:55:28.213Z,100983.31
2023-01-29T23:59:31.319Z,100979.59
